Time;durP1;ratioP1;P1;durP2;ratioP2;P2;SDS_P1;SDS_P2;PMS_P1;PMS_P2;Temp;Humidity;BMP_temperature;BMP_pressure;BME280_temperature;BME280_humidity;BME280_pressure;Samples;Min_cycle;Max_cycle;Signal;HPM_P1;HPM_P2
2021/08/31 00:01:30;;;;;;;12.10;9.00;;;;;;;;;;6308436;22;20146;-62
2021/08/31 00:03:56;;;;;;;11.95;8.80;;;;;;;;;;6307924;22;20198;-62
2021/08/31 00:06:22;;;;;;;13.20;9.27;;;;;;;;;;6308807;22;20158;-61
2021/08/31 00:08:48;;;;;;;12.90;9.10;;;;;;;;;;6308618;22;20212;-61
2021/08/31 00:11:14;;;;;;;11.35;8.88;;;;;;;;;;6308394;22;20229;-61
2021/08/31 00:13:39;;;;;;;10.88;8.70;;;;;;;;;;6308197;22;20417;-61
2021/08/31 00:16:06;;;;;;;10.23;8.73;;;;;;;;;;6308322;22;20146;-61
2021/08/31 00:18:31;;;;;;;13.27;9.15;;;;;;;;;;6308212;22;20139;-61
2021/08/31 00:20:57;;;;;;;11.93;9.15;;;;;;;;;;6308251;22;20445;-61
2021/08/31 00:23:23;;;;;;;14.52;9.40;;;;;;;;;;6308029;22;20197;-62
2021/08/31 00:25:52;;;;;;;17.58;9.35;;;;;;;;;;6308190;22;20273;-61
2021/08/31 00:28:19;;;;;;;9.88;8.88;;;;;;;;;;6308410;22;20442;-61
2021/08/31 00:30:45;;;;;;;12.68;8.57;;;;;;;;;;6308489;22;20170;-61
2021/08/31 00:33:10;;;;;;;11.77;8.45;;;;;;;;;;6308061;22;20201;-61
2021/08/31 00:35:36;;;;;;;13.48;8.63;;;;;;;;;;6308468;22;20439;-61
2021/08/31 00:38:02;;;;;;;12.57;8.25;;;;;;;;;;6307995;22;20177;-61
2021/08/31 00:40:28;;;;;;;10.63;8.65;;;;;;;;;;6308072;22;20217;-61
2021/08/31 00:42:54;;;;;;;10.05;7.60;;;;;;;;;;6307767;22;20174;-61
2021/08/31 00:45:20;;;;;;;12.57;8.20;;;;;;;;;;6308353;22;20136;-62
2021/08/31 00:47:46;;;;;;;10.80;8.13;;;;;;;;;;6307889;22;20139;-62
2021/08/31 00:50:13;;;;;;;9.82;8.57;;;;;;;;;;6307927;22;20139;-61
2021/08/31 00:52:40;;;;;;;11.27;8.23;;;;;;;;;;6308211;22;20143;-62
2021/08/31 00:55:06;;;;;;;16.15;8.45;;;;;;;;;;6307900;22;20143;-61
2021/08/31 00:57:32;;;;;;;10.00;8.32;;;;;;;;;;6307794;22;20150;-61
2021/08/31 00:59:58;;;;;;;11.90;8.15;;;;;;;;;;6307901;22;20139;-61
2021/08/31 01:02:25;;;;;;;11.00;8.35;;;;;;;;;;6307523;22;20215;-61
2021/08/31 01:04:51;;;;;;;11.70;8.13;;;;;;;;;;6308149;22;20210;-62
2021/08/31 01:07:17;;;;;;;13.02;8.23;;;;;;;;;;6307770;22;20547;-62
2021/08/31 01:09:44;;;;;;;12.27;8.65;;;;;;;;;;6308054;22;20489;-62
2021/08/31 01:12:11;;;;;;;11.25;8.50;;;;;;;;;;6308089;22;20146;-62
2021/08/31 01:14:37;;;;;;;11.05;8.27;;;;;;;;;;6307421;22;20540;-63
2021/08/31 01:17:03;;;;;;;11.07;8.07;;;;;;;;;;6308060;22;20147;-62
2021/08/31 01:19:33;;;;;;;13.38;8.27;;;;;;;;;;6307755;22;20135;-62
2021/08/31 01:22:00;;;;;;;12.27;8.55;;;;;;;;;;6307720;22;20783;-61
2021/08/31 01:24:26;;;;;;;10.35;7.93;;;;;;;;;;6307693;22;20205;-62
2021/08/31 01:26:53;;;;;;;10.75;7.85;;;;;;;;;;6307672;22;20196;-61
2021/08/31 01:29:19;;;;;;;11.75;8.50;;;;;;;;;;6307679;22;20135;-62
2021/08/31 01:31:45;;;;;;;14.70;8.40;;;;;;;;;;6307736;22;20161;-62
2021/08/31 01:34:11;;;;;;;13.80;7.93;;;;;;;;;;6307644;22;20139;-62
2021/08/31 01:36:37;;;;;;;13.50;8.50;;;;;;;;;;6307837;22;20149;-62
2021/08/31 01:39:05;;;;;;;13.48;8.40;;;;;;;;;;6308120;22;20150;-62
2021/08/31 01:41:31;;;;;;;12.50;8.25;;;;;;;;;;6307953;22;20147;-62
2021/08/31 01:43:57;;;;;;;12.43;8.35;;;;;;;;;;6307715;22;20598;-62
2021/08/31 01:46:23;;;;;;;13.38;8.93;;;;;;;;;;6308515;22;20165;-62
2021/08/31 01:48:49;;;;;;;13.27;8.38;;;;;;;;;;6308091;22;20134;-61
2021/08/31 01:51:15;;;;;;;15.65;10.50;;;;;;;;;;6308141;22;20162;-62
2021/08/31 01:53:41;;;;;;;14.52;9.27;;;;;;;;;;6308362;22;20202;-61
2021/08/31 01:56:07;;;;;;;13.77;8.82;;;;;;;;;;6308164;22;20555;-61
2021/08/31 01:58:33;;;;;;;12.98;8.68;;;;;;;;;;6308054;22;20196;-61
2021/08/31 02:00:59;;;;;;;15.52;9.70;;;;;;;;;;6308137;22;20473;-61
2021/08/31 02:03:25;;;;;;;14.95;9.38;;;;;;;;;;6307902;22;20198;-61
2021/08/31 02:05:51;;;;;;;15.18;9.35;;;;;;;;;;6308072;22;20138;-62
2021/08/31 02:08:17;;;;;;;12.15;8.70;;;;;;;;;;6307921;22;20139;-61
2021/08/31 02:10:43;;;;;;;12.95;9.20;;;;;;;;;;6308351;22;20146;-61
2021/08/31 02:13:09;;;;;;;15.50;9.63;;;;;;;;;;6307913;22;20214;-62
2021/08/31 02:15:35;;;;;;;16.80;9.52;;;;;;;;;;6307971;22;20535;-61
2021/08/31 02:18:01;;;;;;;16.35;10.07;;;;;;;;;;6307822;22;20150;-61
2021/08/31 02:20:27;;;;;;;20.70;9.85;;;;;;;;;;6308056;22;20155;-62
2021/08/31 02:22:53;;;;;;;15.45;9.98;;;;;;;;;;6307793;22;20163;-62
2021/08/31 02:25:19;;;;;;;14.93;10.48;;;;;;;;;;6307499;22;20186;-61
2021/08/31 02:27:45;;;;;;;19.35;10.27;;;;;;;;;;6307922;22;20139;-61
2021/08/31 02:30:12;;;;;;;16.45;10.07;;;;;;;;;;6308084;22;20139;-61
2021/08/31 02:32:38;;;;;;;17.60;10.18;;;;;;;;;;6308071;22;20146;-62
2021/08/31 02:35:04;;;;;;;17.85;11.25;;;;;;;;;;6307904;22;20153;-62
2021/08/31 02:37:30;;;;;;;21.13;11.50;;;;;;;;;;6307579;22;20599;-62
2021/08/31 02:39:55;;;;;;;16.92;10.75;;;;;;;;;;6307396;22;20163;-62
2021/08/31 02:42:21;;;;;;;16.00;10.40;;;;;;;;;;6307170;22;20250;-62
2021/08/31 02:44:47;;;;;;;15.18;10.63;;;;;;;;;;6307344;22;20479;-62
2021/08/31 02:47:13;;;;;;;16.20;10.05;;;;;;;;;;6307398;22;20570;-62
2021/08/31 02:49:39;;;;;;;16.25;10.57;;;;;;;;;;6307675;22;20135;-61
2021/08/31 02:52:05;;;;;;;16.20;10.52;;;;;;;;;;6307630;22;20239;-62
2021/08/31 02:54:31;;;;;;;19.33;10.48;;;;;;;;;;6307417;22;20143;-61
2021/08/31 02:56:57;;;;;;;15.93;9.95;;;;;;;;;;6307563;22;20261;-61
2021/08/31 02:59:25;;;;;;;14.82;9.77;;;;;;;;;;6307034;22;20135;-62
2021/08/31 03:02:09;;;;;;;16.77;9.82;;;;;;;;;;6307788;22;20167;-61
2021/08/31 03:04:36;;;;;;;12.40;9.10;;;;;;;;;;6307074;22;20119;-61
2021/08/31 03:07:06;;;;;;;11.93;8.68;;;;;;;;;;6307481;22;20149;-62
2021/08/31 03:09:32;;;;;;;15.30;9.13;;;;;;;;;;6279921;22;20238;-62
2021/08/31 03:11:57;;;;;;;14.65;9.10;;;;;;;;;;6307133;22;20625;-62
2021/08/31 03:14:23;;;;;;;14.15;8.55;;;;;;;;;;6307218;22;20142;-62
2021/08/31 03:16:50;;;;;;;11.63;8.23;;;;;;;;;;6306984;22;20143;-62
2021/08/31 03:19:17;;;;;;;12.48;8.73;;;;;;;;;;6306872;22;20139;-62
2021/08/31 03:21:43;;;;;;;13.18;8.43;;;;;;;;;;6306872;22;20139;-62
2021/08/31 03:24:09;;;;;;;12.68;8.75;;;;;;;;;;6306799;22;20227;-62
2021/08/31 03:26:35;;;;;;;12.30;8.68;;;;;;;;;;6306952;22;20209;-62
2021/08/31 03:29:02;;;;;;;15.90;9.52;;;;;;;;;;6307259;22;20139;-62
2021/08/31 03:31:27;;;;;;;16.45;9.23;;;;;;;;;;6307214;22;20143;-61
2021/08/31 03:33:53;;;;;;;14.93;9.30;;;;;;;;;;6306849;22;20174;-62
2021/08/31 03:36:19;;;;;;;14.88;9.35;;;;;;;;;;6307397;22;20574;-62
2021/08/31 03:38:45;;;;;;;13.63;9.73;;;;;;;;;;6309126;22;20142;-62
2021/08/31 03:41:11;;;;;;;11.65;8.98;;;;;;;;;;6308921;22;20440;-61
2021/08/31 03:43:39;;;;;;;12.80;9.40;;;;;;;;;;6308167;22;20174;-61
2021/08/31 03:46:05;;;;;;;13.82;9.35;;;;;;;;;;6308259;22;20138;-61
2021/08/31 03:48:31;;;;;;;15.13;9.10;;;;;;;;;;6308445;22;20145;-61
2021/08/31 03:50:56;;;;;;;12.73;9.27;;;;;;;;;;6308249;22;20138;-62
2021/08/31 03:53:22;;;;;;;14.20;9.23;;;;;;;;;;6308364;22;20155;-61
2021/08/31 03:55:48;;;;;;;15.80;9.23;;;;;;;;;;6308242;22;20143;-61
2021/08/31 03:58:14;;;;;;;14.93;9.65;;;;;;;;;;6308285;22;20155;-61
2021/08/31 04:00:40;;;;;;;14.93;9.52;;;;;;;;;;6308217;22;20139;-61
2021/08/31 04:03:06;;;;;;;14.00;9.60;;;;;;;;;;6308135;22;20644;-61
2021/08/31 04:05:32;;;;;;;15.07;9.15;;;;;;;;;;6308171;22;20139;-61
2021/08/31 04:07:58;;;;;;;12.75;9.73;;;;;;;;;;6308261;22;20146;-62
2021/08/31 04:10:24;;;;;;;14.57;9.50;;;;;;;;;;6308403;22;20142;-61
2021/08/31 04:12:49;;;;;;;11.68;9.27;;;;;;;;;;6308322;22;20492;-61
2021/08/31 04:15:16;;;;;;;11.63;8.88;;;;;;;;;;6308134;22;20139;-62
2021/08/31 04:17:42;;;;;;;13.50;9.27;;;;;;;;;;6308586;22;20443;-62
2021/08/31 04:20:08;;;;;;;12.70;8.75;;;;;;;;;;6308112;22;20145;-62
2021/08/31 04:22:34;;;;;;;11.05;8.45;;;;;;;;;;6308116;22;20605;-62
2021/08/31 04:28:49;;;;;;;12.90;8.32;;;;;;;;;;6258645;22;20200;31
2021/08/31 04:49:49;;;;;;;12.57;8.85;;;;;;;;;;6288951;22;20200;31
2021/08/31 04:56:29;;;;;;;11.25;7.45;;;;;;;;;;6137055;23;20200;31
2021/08/31 05:00:34;;;;;;;10.82;7.05;;;;;;;;;;6322767;22;20533;-58
2021/08/31 05:16:21;;;;;;;9.57;7.07;;;;;;;;;;6266260;22;20197;31
2021/08/31 05:20:47;;;;;;;8.82;7.18;;;;;;;;;;6324526;22;20509;31
2021/08/31 05:36:31;;;;;;;6.82;5.85;;;;;;;;;;6321897;22;20203;31
2021/08/31 05:40:41;;;;;;;9.50;6.15;;;;;;;;;;6325889;22;20527;31
2021/08/31 05:56:50;;;;;;;8.63;5.55;;;;;;;;;;6302817;22;20191;-58
2021/08/31 05:59:16;;;;;;;18.13;6.00;;;;;;;;;;6316512;22;20142;-58
2021/08/31 06:01:44;;;;;;;6.90;5.35;;;;;;;;;;6316281;22;20158;-58
2021/08/31 06:04:10;;;;;;;8.48;5.72;;;;;;;;;;6316693;22;20192;-58
2021/08/31 06:06:35;;;;;;;10.52;5.53;;;;;;;;;;6316226;22;20138;-58
2021/08/31 06:09:01;;;;;;;7.80;5.43;;;;;;;;;;6316223;22;20446;-58
2021/08/31 06:11:29;;;;;;;8.35;5.47;;;;;;;;;;6316028;22;20149;-58
2021/08/31 06:13:55;;;;;;;8.82;5.30;;;;;;;;;;6316443;22;20170;-58
2021/08/31 06:16:21;;;;;;;6.80;5.30;;;;;;;;;;6316004;22;20196;-58
2021/08/31 06:18:47;;;;;;;7.43;5.35;;;;;;;;;;6316105;22;20150;-58
2021/08/31 06:21:14;;;;;;;6.00;5.05;;;;;;;;;;6315887;22;20142;-58
2021/08/31 06:23:40;;;;;;;7.75;4.75;;;;;;;;;;6316067;22;20142;-58
2021/08/31 06:26:06;;;;;;;6.15;5.35;;;;;;;;;;6315862;22;20264;-58
2021/08/31 06:28:33;;;;;;;8.45;5.63;;;;;;;;;;6315921;22;20138;-58
2021/08/31 06:30:59;;;;;;;7.72;4.75;;;;;;;;;;6316303;22;20283;-58
2021/08/31 06:33:25;;;;;;;6.85;5.00;;;;;;;;;;6315880;22;20193;-58
2021/08/31 06:35:51;;;;;;;6.80;4.78;;;;;;;;;;6315824;22;20138;-58
2021/08/31 06:38:16;;;;;;;5.72;5.00;;;;;;;;;;6315876;22;20139;-57
2021/08/31 06:40:42;;;;;;;6.72;4.85;;;;;;;;;;6316094;22;20229;-57
2021/08/31 06:43:08;;;;;;;6.78;5.10;;;;;;;;;;6315775;22;20149;-59
2021/08/31 06:45:34;;;;;;;6.25;4.70;;;;;;;;;;6315795;22;20138;-58
2021/08/31 06:48:00;;;;;;;8.80;5.25;;;;;;;;;;6315705;22;20142;-59
2021/08/31 06:50:26;;;;;;;6.03;4.78;;;;;;;;;;6315595;22;20539;-58
2021/08/31 06:52:52;;;;;;;6.18;5.10;;;;;;;;;;6315835;22;20170;-57
2021/08/31 06:55:18;;;;;;;7.70;4.65;;;;;;;;;;6315603;22;20463;-57
2021/08/31 06:57:45;;;;;;;6.18;4.50;;;;;;;;;;6315498;22;20154;-57
2021/08/31 07:00:11;;;;;;;5.47;4.18;;;;;;;;;;6315503;22;20158;-57
2021/08/31 07:02:37;;;;;;;5.57;4.20;;;;;;;;;;6315300;22;20142;-57
2021/08/31 07:05:03;;;;;;;5.03;4.00;;;;;;;;;;6309918;22;20138;-57
2021/08/31 07:07:29;;;;;;;6.45;4.15;;;;;;;;;;6308460;22;20218;-57
2021/08/31 07:09:55;;;;;;;7.28;4.40;;;;;;;;;;6308531;22;20170;-57
2021/08/31 07:12:21;;;;;;;6.28;4.15;;;;;;;;;;6308395;22;20162;-58
2021/08/31 07:14:48;;;;;;;5.45;3.92;;;;;;;;;;6308801;22;20173;-57
2021/08/31 07:17:14;;;;;;;4.80;3.88;;;;;;;;;;6309073;22;20196;-57
2021/08/31 07:19:40;;;;;;;5.70;4.00;;;;;;;;;;6308439;22;20586;-57
2021/08/31 07:22:06;;;;;;;5.38;4.13;;;;;;;;;;6308365;22;20143;-58
2021/08/31 07:24:32;;;;;;;6.45;4.28;;;;;;;;;;6308582;22;20166;-59
2021/08/31 07:26:58;;;;;;;5.20;3.63;;;;;;;;;;6308238;22;20146;-57
2021/08/31 07:29:24;;;;;;;5.45;3.95;;;;;;;;;;6308282;22;20143;-57
2021/08/31 07:31:52;;;;;;;6.72;3.92;;;;;;;;;;6332903;22;20146;-57
2021/08/31 07:34:18;;;;;;;6.78;3.92;;;;;;;;;;6308420;22;20196;-59
2021/08/31 07:36:45;;;;;;;5.22;3.78;;;;;;;;;;6308037;22;20135;-59
2021/08/31 07:39:11;;;;;;;5.43;3.42;;;;;;;;;;6308310;22;20192;-59
2021/08/31 07:41:37;;;;;;;5.32;3.80;;;;;;;;;;6308180;22;20174;-59
2021/08/31 07:44:03;;;;;;;4.22;3.58;;;;;;;;;;6308362;22;20147;-58
2021/08/31 07:46:29;;;;;;;5.82;4.03;;;;;;;;;;6308087;22;20567;-59
2021/08/31 07:48:56;;;;;;;4.70;3.72;;;;;;;;;;6308358;22;20458;-58
2021/08/31 07:51:22;;;;;;;5.10;3.58;;;;;;;;;;6308437;22;20169;-59
2021/08/31 07:53:48;;;;;;;6.30;3.50;;;;;;;;;;6308193;22;20231;-59
2021/08/31 07:56:14;;;;;;;4.72;3.47;;;;;;;;;;6307963;22;20620;-58
2021/08/31 07:58:40;;;;;;;4.10;3.25;;;;;;;;;;6307897;22;20200;-59
2021/08/31 08:01:06;;;;;;;4.63;3.35;;;;;;;;;;6308149;22;20492;-58
2021/08/31 08:03:33;;;;;;;5.00;3.40;;;;;;;;;;6307694;22;20535;-59
2021/08/31 08:05:58;;;;;;;6.68;3.25;;;;;;;;;;6307717;22;20146;-59
2021/08/31 08:08:24;;;;;;;4.25;3.63;;;;;;;;;;6307750;22;20139;-58
2021/08/31 08:10:51;;;;;;;4.55;3.40;;;;;;;;;;6307746;22;20440;-59
2021/08/31 08:13:17;;;;;;;5.03;3.72;;;;;;;;;;6307919;22;20235;-59
2021/08/31 08:15:43;;;;;;;6.03;3.83;;;;;;;;;;6307245;22;20131;-58
2021/08/31 08:18:09;;;;;;;5.15;3.38;;;;;;;;;;6307637;22;20543;-59
2021/08/31 08:20:35;;;;;;;4.55;3.63;;;;;;;;;;6307667;22;20209;-59
2021/08/31 08:23:01;;;;;;;6.40;3.75;;;;;;;;;;6307892;22;20468;-59
2021/08/31 08:25:27;;;;;;;8.75;3.80;;;;;;;;;;6307683;22;20150;-59
2021/08/31 08:27:53;;;;;;;7.20;4.05;;;;;;;;;;6307866;22;20143;-59
2021/08/31 08:30:19;;;;;;;5.03;3.78;;;;;;;;;;6307863;22;20151;-59
2021/08/31 08:32:45;;;;;;;4.72;3.80;;;;;;;;;;6307470;22;20162;-59
2021/08/31 08:35:12;;;;;;;5.47;3.30;;;;;;;;;;6307918;22;20203;-59
2021/08/31 08:37:38;;;;;;;4.70;3.70;;;;;;;;;;6307788;22;20143;-59
2021/08/31 08:40:05;;;;;;;4.70;3.42;;;;;;;;;;6307656;22;20432;-59
2021/08/31 08:42:31;;;;;;;6.18;3.92;;;;;;;;;;6307336;22;20563;-59
2021/08/31 08:44:57;;;;;;;3.95;3.55;;;;;;;;;;6307342;22;20142;-59
2021/08/31 08:47:23;;;;;;;5.68;3.92;;;;;;;;;;6307563;22;20547;-59
2021/08/31 08:49:49;;;;;;;5.80;4.00;;;;;;;;;;6307489;22;20149;-59
2021/08/31 08:52:15;;;;;;;5.32;3.60;;;;;;;;;;6307841;22;20181;-59
2021/08/31 08:54:41;;;;;;;4.78;3.83;;;;;;;;;;6307260;22;20135;-61
2021/08/31 08:57:08;;;;;;;6.15;4.10;;;;;;;;;;6307427;22;20248;-62
2021/08/31 08:59:36;;;;;;;6.47;3.88;;;;;;;;;;6307559;22;20134;-62
2021/08/31 09:02:02;;;;;;;3.90;3.50;;;;;;;;;;6308050;22;20142;-62
2021/08/31 09:04:43;;;;;;;5.35;3.75;;;;;;;;;;6307949;22;20196;-62
2021/08/31 09:07:22;;;;;;;5.10;3.92;;;;;;;;;;6307724;22;20211;-62
2021/08/31 09:09:49;;;;;;;5.25;3.25;;;;;;;;;;6308145;22;20149;-62
2021/08/31 09:12:34;;;;;;;4.95;3.80;;;;;;;;;;6307819;22;20211;-62
2021/08/31 09:15:19;;;;;;;5.20;3.40;;;;;;;;;;6307870;22;20138;-62
2021/08/31 09:18:04;;;;;;;5.18;3.72;;;;;;;;;;6308252;22;20447;-62
2021/08/31 09:20:35;;;;;;;3.17;2.88;;;;;;;;;;6308318;22;20135;-62
2021/08/31 09:23:01;;;;;;;3.88;3.47;;;;;;;;;;6308029;22;20211;-62
2021/08/31 09:25:34;;;;;;;3.60;2.80;;;;;;;;;;6307700;22;20420;-62
2021/08/31 09:28:00;;;;;;;3.90;3.50;;;;;;;;;;6307416;22;20237;-62
2021/08/31 09:30:27;;;;;;;7.10;3.40;;;;;;;;;;6307678;22;20177;-62
2021/08/31 09:33:00;;;;;;;3.78;3.05;;;;;;;;;;6307855;22;20515;-62
2021/08/31 09:35:30;;;;;;;3.75;3.08;;;;;;;;;;6308071;22;20149;-62
2021/08/31 09:37:58;;;;;;;4.75;3.13;;;;;;;;;;6308451;22;20205;-62
2021/08/31 09:40:27;;;;;;;3.85;3.42;;;;;;;;;;6307883;22;20146;-60
2021/08/31 09:43:04;;;;;;;4.40;3.05;;;;;;;;;;6307449;22;20546;-60
2021/08/31 09:45:32;;;;;;;4.10;3.15;;;;;;;;;;6307505;22;20142;-60
2021/08/31 09:47:59;;;;;;;3.83;3.28;;;;;;;;;;6307307;22;20623;-61
2021/08/31 09:50:30;;;;;;;3.83;2.92;;;;;;;;;;6307258;22;20563;-60
2021/08/31 09:53:03;;;;;;;3.92;2.97;;;;;;;;;;6332218;22;20198;-60
2021/08/31 09:55:29;;;;;;;4.00;2.90;;;;;;;;;;6307254;22;20550;-60
2021/08/31 09:58:06;;;;;;;3.63;2.90;;;;;;;;;;6307190;22;20166;-61
2021/08/31 10:00:32;;;;;;;4.53;3.28;;;;;;;;;;6307099;22;20228;-61
2021/08/31 10:02:59;;;;;;;4.13;3.47;;;;;;;;;;6307119;22;20174;-62
2021/08/31 10:05:26;;;;;;;3.95;3.17;;;;;;;;;;6307270;22;20157;-62
2021/08/31 10:07:52;;;;;;;3.40;2.83;;;;;;;;;;6307369;22;20164;-62
2021/08/31 10:10:18;;;;;;;5.45;2.90;;;;;;;;;;6307151;22;20147;-61
2021/08/31 10:12:45;;;;;;;4.53;3.10;;;;;;;;;;6307290;22;20201;-61
2021/08/31 10:15:11;;;;;;;4.88;3.60;;;;;;;;;;6306987;22;20139;-61
2021/08/31 10:17:38;;;;;;;3.85;3.38;;;;;;;;;;6306795;22;20138;-61
2021/08/31 10:20:05;;;;;;;4.30;3.63;;;;;;;;;;6306637;22;20574;-61
2021/08/31 10:22:32;;;;;;;5.45;3.13;;;;;;;;;;6306763;22;20225;-61
2021/08/31 10:24:58;;;;;;;4.25;3.47;;;;;;;;;;6307154;22;20156;-62
2021/08/31 10:27:30;;;;;;;4.95;3.33;;;;;;;;;;6306916;22;20229;-61
2021/08/31 10:30:15;;;;;;;5.90;3.42;;;;;;;;;;6306724;22;20142;-62
2021/08/31 10:32:41;;;;;;;4.88;3.45;;;;;;;;;;6306612;22;20254;-62
2021/08/31 10:35:08;;;;;;;5.05;3.60;;;;;;;;;;6306609;22;20138;-62
2021/08/31 10:37:44;;;;;;;5.80;3.50;;;;;;;;;;6306853;22;20142;-61
2021/08/31 10:40:10;;;;;;;5.55;4.32;;;;;;;;;;6308267;22;20142;-61
2021/08/31 10:42:36;;;;;;;4.35;3.50;;;;;;;;;;6308720;22;20150;-62
2021/08/31 10:45:04;;;;;;;4.38;3.60;;;;;;;;;;6308947;22;20253;-62
2021/08/31 10:47:34;;;;;;;7.60;4.10;;;;;;;;;;6308623;22;20143;-61
2021/08/31 10:50:00;;;;;;;4.38;3.80;;;;;;;;;;6308654;22;20734;-61
2021/08/31 10:52:32;;;;;;;4.60;3.58;;;;;;;;;;6309016;22;20197;-61
2021/08/31 10:54:58;;;;;;;4.25;3.85;;;;;;;;;;6308499;22;20178;-61
2021/08/31 10:57:36;;;;;;;4.65;4.15;;;;;;;;;;6308478;22;20147;-62
2021/08/31 11:00:25;;;;;;;5.32;3.60;;;;;;;;;;6308491;22;20139;-61
2021/08/31 11:03:00;;;;;;;5.68;3.92;;;;;;;;;;6308569;22;20453;-61
2021/08/31 11:05:28;;;;;;;4.85;3.53;;;;;;;;;;6308349;22;20648;-61
2021/08/31 11:08:11;;;;;;;5.65;3.83;;;;;;;;;;6308890;22;20147;-61
2021/08/31 11:10:38;;;;;;;5.38;3.75;;;;;;;;;;6308682;22;20224;-61
2021/08/31 11:13:09;;;;;;;5.68;3.53;;;;;;;;;;6308337;22;20552;-62
2021/08/31 11:15:35;;;;;;;5.95;3.88;;;;;;;;;;6308054;22;20203;-62
2021/08/31 11:18:01;;;;;;;7.00;3.95;;;;;;;;;;6308351;22;20142;-61
2021/08/31 11:20:27;;;;;;;7.45;3.88;;;;;;;;;;6308729;22;20151;-61
2021/08/31 11:23:18;;;;;;;5.57;3.60;;;;;;;;;;6308384;22;20138;-61
2021/08/31 11:25:48;;;;;;;5.40;4.03;;;;;;;;;;6308319;22;20543;-62
2021/08/31 11:28:15;;;;;;;4.55;3.83;;;;;;;;;;6308401;22;20551;-61
2021/08/31 11:30:49;;;;;;;5.20;4.25;;;;;;;;;;6308189;22;20150;-62
2021/08/31 11:33:18;;;;;;;4.38;3.88;;;;;;;;;;6308362;22;20235;-62
2021/08/31 11:35:44;;;;;;;5.43;4.03;;;;;;;;;;6308246;22;20139;-62
2021/08/31 11:38:10;;;;;;;4.35;3.95;;;;;;;;;;6308645;22;20233;-62
2021/08/31 11:40:36;;;;;;;5.47;3.60;;;;;;;;;;6308089;22;20176;-62
2021/08/31 11:43:02;;;;;;;4.57;3.83;;;;;;;;;;6308168;22;20152;-61
2021/08/31 11:45:38;;;;;;;4.43;3.88;;;;;;;;;;6308066;22;20454;-61
2021/08/31 11:48:05;;;;;;;5.63;4.53;;;;;;;;;;6308572;22;20127;-61
2021/08/31 11:50:31;;;;;;;5.03;3.88;;;;;;;;;;6307911;22;20577;-61
2021/08/31 11:52:57;;;;;;;5.60;4.20;;;;;;;;;;6307817;22;20188;-66
2021/08/31 11:55:24;;;;;;;4.63;3.80;;;;;;;;;;6308124;22;20221;-66
2021/08/31 11:58:01;;;;;;;6.07;3.78;;;;;;;;;;6308000;22;20155;-66
2021/08/31 12:00:39;;;;;;;4.63;4.03;;;;;;;;;;6308265;22;20370;-67
2021/08/31 12:03:17;;;;;;;3.95;3.33;;;;;;;;;;6308680;22;20134;-66
2021/08/31 12:05:43;;;;;;;5.85;3.88;;;;;;;;;;6307839;22;20165;-67
2021/08/31 12:08:09;;;;;;;5.80;3.65;;;;;;;;;;6307977;22;20143;-67
2021/08/31 12:10:35;;;;;;;5.78;3.95;;;;;;;;;;6308115;22;20146;-66
2021/08/31 12:13:01;;;;;;;4.38;3.95;;;;;;;;;;6307821;22;20198;-67
2021/08/31 12:15:27;;;;;;;5.07;3.80;;;;;;;;;;6307725;22;20384;-66
2021/08/31 12:18:01;;;;;;;6.43;3.80;;;;;;;;;;6308169;22;20138;-66
2021/08/31 12:20:27;;;;;;;4.43;3.95;;;;;;;;;;6308118;22;20439;-66
2021/08/31 12:22:56;;;;;;;5.22;4.32;;;;;;;;;;6307804;22;20139;-66
2021/08/31 12:25:22;;;;;;;5.78;3.72;;;;;;;;;;6307748;22;20139;-66
2021/08/31 12:27:50;;;;;;;4.80;3.75;;;;;;;;;;6308219;22;20142;-66
2021/08/31 12:30:17;;;;;;;4.90;3.72;;;;;;;;;;6307693;22;20443;-67
2021/08/31 12:32:43;;;;;;;6.32;4.00;;;;;;;;;;6332462;22;20184;-58
2021/08/31 12:35:28;;;;;;;4.60;3.67;;;;;;;;;;6308148;22;20273;-58
2021/08/31 12:38:25;;;;;;;5.70;3.80;;;;;;;;;;6308634;22;20222;-58
2021/08/31 12:43:27;;;;;;;5.18;3.90;;;;;;;;;;6308360;22;20201;-58
2021/08/31 12:45:55;;;;;;;4.72;3.88;;;;;;;;;;6307945;22;20560;-59
2021/08/31 12:48:33;;;;;;;5.00;4.25;;;;;;;;;;6308253;22;20493;-58
2021/08/31 12:51:04;;;;;;;4.95;3.72;;;;;;;;;;6303387;22;20657;-58
2021/08/31 12:53:36;;;;;;;5.25;4.00;;;;;;;;;;6308353;22;20277;-59
2021/08/31 12:58:30;;;;;;;4.35;3.83;;;;;;;;;;6275876;22;20197;-60
2021/08/31 13:00:56;;;;;;;4.75;4.20;;;;;;;;;;6276237;22;20210;31
2021/08/31 13:05:50;;;;;;;5.40;4.03;;;;;;;;;;6275852;22;20183;-59
2021/08/31 13:08:16;;;;;;;4.75;4.00;;;;;;;;;;6269698;22;20204;-58
2021/08/31 13:10:42;;;;;;;5.07;3.90;;;;;;;;;;6276287;22;20240;31
2021/08/31 13:13:08;;;;;;;5.75;3.85;;;;;;;;;;6278618;22;20187;-58
2021/08/31 13:15:34;;;;;;;4.70;4.05;;;;;;;;;;6275974;22;20255;-58
2021/08/31 13:17:59;;;;;;;4.72;3.70;;;;;;;;;;6276049;22;20290;-60
2021/08/31 13:20:25;;;;;;;4.32;3.80;;;;;;;;;;6276045;22;20267;-60
2021/08/31 13:22:51;;;;;;;5.00;4.00;;;;;;;;;;6271500;22;20193;31
2021/08/31 13:25:17;;;;;;;6.57;4.00;;;;;;;;;;6278846;22;20592;-60
2021/08/31 13:30:09;;;;;;;4.65;3.53;;;;;;;;;;6274918;22;20202;-61
2021/08/31 13:32:35;;;;;;;5.30;4.22;;;;;;;;;;6273299;22;20201;-60
2021/08/31 13:39:53;;;;;;;6.53;4.60;;;;;;;;;;6266040;22;20556;-61
2021/08/31 13:42:19;;;;;;;5.60;3.90;;;;;;;;;;6223766;22;995603;-60
2021/08/31 13:44:45;;;;;;;4.45;4.05;;;;;;;;;;6266336;22;20238;-60
2021/08/31 13:52:02;;;;;;;6.43;4.05;;;;;;;;;;6225057;22;989138;-61
2021/08/31 13:54:28;;;;;;;4.40;4.00;;;;;;;;;;6265865;22;21323;-60
2021/08/31 13:56:54;;;;;;;4.85;4.25;;;;;;;;;;6270600;22;20202;-62
2021/08/31 13:59:21;;;;;;;4.13;3.72;;;;;;;;;;6276067;22;20143;-62
2021/08/31 14:01:46;;;;;;;4.70;3.85;;;;;;;;;;6276252;22;20143;-61
2021/08/31 14:04:14;;;;;;;6.05;4.25;;;;;;;;;;6275810;22;20231;-61
2021/08/31 14:06:40;;;;;;;6.13;3.92;;;;;;;;;;6276105;22;20183;-61
2021/08/31 14:09:06;;;;;;;4.50;4.10;;;;;;;;;;6276023;22;20187;-61
2021/08/31 14:11:32;;;;;;;6.68;4.53;;;;;;;;;;6275717;22;20143;-61
2021/08/31 14:13:58;;;;;;;4.03;3.60;;;;;;;;;;6276154;22;20210;-62
2021/08/31 14:16:24;;;;;;;6.78;4.57;;;;;;;;;;6265144;22;20214;-60
2021/08/31 14:18:51;;;;;;;4.38;3.92;;;;;;;;;;6278251;22;20665;-61
2021/08/31 14:21:19;;;;;;;4.53;4.07;;;;;;;;;;6306697;22;20247;-61
2021/08/31 14:23:44;;;;;;;6.45;4.15;;;;;;;;;;6309034;22;20156;-61
2021/08/31 14:26:10;;;;;;;5.13;4.07;;;;;;;;;;6309208;22;20145;-62
2021/08/31 14:28:37;;;;;;;5.43;4.47;;;;;;;;;;6309119;22;20146;-61
2021/08/31 14:31:03;;;;;;;4.82;4.35;;;;;;;;;;6309085;22;20173;-61
2021/08/31 14:33:29;;;;;;;4.40;3.90;;;;;;;;;;6308980;22;20170;-61
2021/08/31 14:35:55;;;;;;;8.50;4.13;;;;;;;;;;6309143;22;20254;-61
2021/08/31 14:38:21;;;;;;;6.50;4.38;;;;;;;;;;6308987;22;20196;-61
2021/08/31 14:40:47;;;;;;;6.28;4.38;;;;;;;;;;6309155;22;20150;-61
2021/08/31 14:43:13;;;;;;;5.88;4.28;;;;;;;;;;6308946;22;20151;-62
2021/08/31 14:45:39;;;;;;;6.03;4.20;;;;;;;;;;6309028;22;20139;-61
2021/08/31 14:48:05;;;;;;;7.93;4.63;;;;;;;;;;6308542;22;20436;-61
2021/08/31 14:50:31;;;;;;;6.68;4.60;;;;;;;;;;6308675;22;20142;-61
2021/08/31 14:52:57;;;;;;;5.28;4.55;;;;;;;;;;6308350;22;20176;-61
2021/08/31 14:55:23;;;;;;;5.55;4.55;;;;;;;;;;6308858;22;20143;-61
2021/08/31 14:57:49;;;;;;;6.65;4.38;;;;;;;;;;6308569;22;20188;-61
2021/08/31 15:00:15;;;;;;;4.97;4.25;;;;;;;;;;6308652;22;20199;-61
2021/08/31 15:02:41;;;;;;;6.30;4.45;;;;;;;;;;6308804;22;20146;-61
2021/08/31 15:05:07;;;;;;;4.45;4.00;;;;;;;;;;6308379;22;20542;-61
2021/08/31 15:07:33;;;;;;;5.22;4.50;;;;;;;;;;6308391;22;20153;-61
2021/08/31 15:09:59;;;;;;;4.57;4.18;;;;;;;;;;6308337;22;20170;-61
2021/08/31 15:12:25;;;;;;;5.00;4.43;;;;;;;;;;6308333;22;20235;-61
2021/08/31 15:14:51;;;;;;;6.50;4.55;;;;;;;;;;6308814;22;20169;-61
2021/08/31 15:17:16;;;;;;;6.75;4.40;;;;;;;;;;6308325;22;20465;-61
2021/08/31 15:19:42;;;;;;;5.10;4.15;;;;;;;;;;6308731;22;20188;-61
2021/08/31 15:22:09;;;;;;;7.30;4.70;;;;;;;;;;6328216;22;20154;-62
2021/08/31 15:24:35;;;;;;;5.45;4.32;;;;;;;;;;6339799;22;20153;-62
2021/08/31 15:27:01;;;;;;;5.38;4.07;;;;;;;;;;6339429;22;20145;-62
2021/08/31 15:29:27;;;;;;;4.38;3.97;;;;;;;;;;6339593;22;20432;-62
2021/08/31 15:31:53;;;;;;;4.47;4.05;;;;;;;;;;6339729;22;20208;-62
2021/08/31 15:34:19;;;;;;;4.25;3.85;;;;;;;;;;6340105;22;20166;-62
2021/08/31 15:36:47;;;;;;;4.72;4.13;;;;;;;;;;6340166;22;20470;-62
2021/08/31 15:39:13;;;;;;;5.72;4.50;;;;;;;;;;6339661;22;20138;-62
2021/08/31 15:41:39;;;;;;;5.57;4.40;;;;;;;;;;6338590;22;20246;-62
2021/08/31 15:44:05;;;;;;;5.45;3.97;;;;;;;;;;6339993;22;20146;-62
2021/08/31 15:46:34;;;;;;;4.30;3.78;;;;;;;;;;6340241;22;20447;-62
2021/08/31 15:49:00;;;;;;;5.50;4.13;;;;;;;;;;6340328;22;20152;-62
2021/08/31 15:51:26;;;;;;;4.65;4.20;;;;;;;;;;6340080;22;20142;-62
2021/08/31 15:53:51;;;;;;;4.40;4.00;;;;;;;;;;6339748;22;20164;-61
2021/08/31 15:56:17;;;;;;;5.93;4.47;;;;;;;;;;6339951;22;20145;-62
2021/08/31 15:58:43;;;;;;;5.10;4.25;;;;;;;;;;6339945;22;20138;-62
2021/08/31 16:01:09;;;;;;;5.03;4.20;;;;;;;;;;6339996;22;20138;-62
2021/08/31 16:03:35;;;;;;;4.88;3.88;;;;;;;;;;6340032;22;20149;-62
2021/08/31 16:06:01;;;;;;;4.60;4.18;;;;;;;;;;6339925;22;20211;-62
2021/08/31 16:08:27;;;;;;;5.68;4.20;;;;;;;;;;6339643;22;20217;-62
2021/08/31 16:10:53;;;;;;;6.75;3.85;;;;;;;;;;6339723;22;20180;-62